Time;durP1;ratioP1;P1;durP2;ratioP2;P2;SDS_P1;SDS_P2;PMS_P1;PMS_P2;Temp;Humidity;BMP_temperature;BMP_pressure;BME280_temperature;BME280_humidity;BME280_pressure;Samples;Min_cycle;Max_cycle;Signal;HPM_P1;HPM_P2
2022/10/04 00:02:02;;;;;;;0.90;0.90;;;13.10;97.30;;;;;;5013854;28;20428;-89
2022/10/04 00:04:51;;;;;;;1.40;1.30;;;13.10;97.30;;;;;;5000227;28;20425;-90
2022/10/04 00:07:25;;;;;;;1.10;1.00;;;13.10;97.30;;;;;;5012726;28;20420;-89
2022/10/04 00:09:58;;;;;;;15.83;1.30;;;13.00;97.30;;;;;;5009886;28;20503;-89
2022/10/04 00:13:10;;;;;;;1.10;1.10;;;13.00;97.30;;;;;;5006353;28;20416;-89
2022/10/04 00:15:40;;;;;;;1.20;1.10;;;13.00;97.30;;;;;;5005215;28;20495;-89
2022/10/04 00:25:00;;;;;;;1.33;1.30;;;12.80;97.30;;;;;;4995852;28;20481;-89
2022/10/04 00:27:29;;;;;;;1.67;1.57;;;12.80;97.30;;;;;;5004321;28;20424;-89
2022/10/04 00:30:20;;;;;;;1.20;1.10;;;12.80;97.30;;;;;;5011965;28;20518;-89
2022/10/04 00:36:38;;;;;;;0.93;0.87;;;12.70;97.30;;;;;;4981439;28;20416;-88
2022/10/04 00:42:12;;;;;;;2.13;1.53;;;12.70;97.30;;;;;;5006965;28;20412;-89
2022/10/04 00:45:04;;;;;;;1.10;1.00;;;12.60;97.30;;;;;;5011894;28;20416;-89
2022/10/04 00:47:43;;;;;;;2.50;1.30;;;12.60;97.30;;;;;;5011780;28;20781;-89
2022/10/04 00:50:24;;;;;;;0.90;0.90;;;12.60;97.30;;;;;;4999079;28;20543;-89
2022/10/04 00:52:55;;;;;;;1.20;1.10;;;12.60;97.30;;;;;;5011615;28;20473;-89
2022/10/04 00:55:55;;;;;;;1.20;1.00;;;12.60;97.30;;;;;;5012468;28;20406;-89
2022/10/04 00:58:27;;;;;;;1.03;0.97;;;12.60;97.30;;;;;;5008694;28;20818;-89
2022/10/04 01:00:54;;;;;;;2.50;1.80;;;12.60;97.30;;;;;;4999293;28;20429;-89
2022/10/04 01:03:35;;;;;;;2.07;1.40;;;12.60;97.30;;;;;;5012111;28;20448;-89
2022/10/04 01:06:07;;;;;;;1.20;1.10;;;12.50;97.30;;;;;;5012808;28;20546;-89
2022/10/04 01:08:39;;;;;;;1.00;0.90;;;12.50;97.30;;;;;;5030965;28;20536;-88
2022/10/04 01:11:22;;;;;;;4.50;1.63;;;12.60;97.30;;;;;;5035617;28;20420;-87
2022/10/04 01:13:57;;;;;;;1.37;1.00;;;12.50;97.30;;;;;;5022998;28;20448;-89
2022/10/04 01:16:30;;;;;;;2.50;1.70;;;12.50;97.30;;;;;;5036108;28;20451;-89
2022/10/04 01:19:21;;;;;;;2.60;1.47;;;12.50;97.30;;;;;;5035527;28;20436;-90
2022/10/04 01:22:19;;;;;;;4.77;1.80;;;12.50;97.30;;;;;;5035848;28;20431;-89
2022/10/04 01:24:44;;;;;;;1.10;0.93;;;12.50;97.30;;;;;;5054314;28;20454;-89
2022/10/04 01:27:38;;;;;;;0.90;0.80;;;12.40;97.30;;;;;;5074299;28;20434;-89
2022/10/04 01:30:08;;;;;;;1.10;1.00;;;12.40;97.30;;;;;;5075169;28;20221;-89
2022/10/04 01:32:35;;;;;;;0.97;0.97;;;12.40;97.30;;;;;;5068343;28;20423;-89
2022/10/04 01:35:04;;;;;;;0.93;0.90;;;12.40;97.30;;;;;;5067391;28;20417;-89
2022/10/04 01:37:30;;;;;;;2.00;1.40;;;12.40;97.30;;;;;;5030455;28;21007;-89
2022/10/04 01:39:56;;;;;;;3.47;0.97;;;12.40;97.30;;;;;;5030386;28;20431;-89
2022/10/04 01:42:34;;;;;;;1.00;0.90;;;12.40;97.30;;;;;;5039331;28;20191;-89
2022/10/04 01:45:09;;;;;;;1.00;0.87;;;12.40;97.30;;;;;;5046340;28;20422;-89
2022/10/04 01:47:52;;;;;;;4.60;1.93;;;12.30;97.30;;;;;;5031743;28;20408;-89
2022/10/04 01:50:37;;;;;;;1.23;0.90;;;12.30;97.30;;;;;;5038343;28;20454;-89
2022/10/04 01:53:17;;;;;;;1.00;0.90;;;12.30;97.30;;;;;;5049634;28;20422;-89
2022/10/04 01:55:47;;;;;;;1.00;0.90;;;12.30;97.30;;;;;;5039055;28;21126;-89
2022/10/04 01:58:24;;;;;;;2.00;1.23;;;12.30;97.30;;;;;;5049197;28;20480;-89
2022/10/04 02:01:00;;;;;;;1.37;1.10;;;12.30;97.30;;;;;;5049206;28;20963;-89
2022/10/04 02:03:39;;;;;;;1.67;1.20;;;12.30;97.30;;;;;;5041357;28;20418;-89
2022/10/04 02:06:08;;;;;;;1.17;1.07;;;12.30;97.30;;;;;;5030893;28;20423;-89
2022/10/04 02:08:38;;;;;;;1.17;1.07;;;12.20;97.30;;;;;;5030952;28;20981;-89
2022/10/04 02:11:05;;;;;;;4.80;1.90;;;12.20;97.30;;;;;;5035424;28;20410;-89
2022/10/04 02:13:37;;;;;;;0.93;0.83;;;12.20;97.30;;;;;;5038556;28;20509;-89
2022/10/04 02:16:08;;;;;;;1.43;1.40;;;12.20;97.30;;;;;;5039201;28;20528;-89
2022/10/04 02:18:40;;;;;;;1.57;1.50;;;12.20;97.30;;;;;;5050059;28;20430;-89
2022/10/04 02:21:07;;;;;;;1.20;1.10;;;12.10;97.30;;;;;;5061202;28;20911;-89
2022/10/04 02:23:35;;;;;;;1.47;1.17;;;12.10;97.30;;;;;;5029582;28;20490;-89
2022/10/04 02:26:10;;;;;;;1.07;0.97;;;12.10;97.30;;;;;;5035583;28;20513;-89
2022/10/04 02:28:36;;;;;;;1.73;1.63;;;12.10;97.30;;;;;;5049413;28;20472;-89
2022/10/04 02:33:50;;;;;;;0.90;0.80;;;12.10;97.30;;;;;;5051105;28;20425;-89
2022/10/04 02:36:17;;;;;;;1.13;1.10;;;12.10;97.30;;;;;;5049878;28;20418;-89
2022/10/04 02:38:52;;;;;;;1.77;1.73;;;12.00;97.30;;;;;;5049690;28;20778;-89
2022/10/04 02:41:30;;;;;;;3.73;1.67;;;12.00;97.30;;;;;;5036460;28;21000;-89
2022/10/04 02:44:08;;;;;;;1.00;0.90;;;12.00;97.30;;;;;;5051199;28;20998;-89
2022/10/04 02:46:47;;;;;;;1.10;1.00;;;12.00;97.30;;;;;;5036572;28;20425;-89
2022/10/04 02:49:35;;;;;;;1.43;1.33;;;12.00;97.30;;;;;;5052762;28;20583;-89
2022/10/04 02:52:06;;;;;;;1.77;1.47;;;11.90;97.30;;;;;;5042534;28;20471;-89
2022/10/04 02:54:44;;;;;;;1.90;1.20;;;11.80;97.30;;;;;;5041197;28;20419;-89
2022/10/04 02:57:19;;;;;;;1.20;1.10;;;11.80;97.30;;;;;;5043549;28;20406;-89
2022/10/04 02:59:44;;;;;;;1.63;1.53;;;11.70;97.30;;;;;;5039250;28;20502;-89
2022/10/04 03:02:27;;;;;;;1.10;1.00;;;11.70;97.30;;;;;;5042404;28;20435;-89
2022/10/04 03:04:58;;;;;;;1.57;1.30;;;11.60;97.30;;;;;;5042260;28;20262;-89
2022/10/04 03:07:27;;;;;;;1.10;1.00;;;11.60;97.30;;;;;;5052991;28;20449;-89
2022/10/04 03:09:53;;;;;;;1.20;1.17;;;11.60;97.30;;;;;;5052696;28;20553;-89
2022/10/04 03:12:19;;;;;;;1.00;0.90;;;11.60;97.30;;;;;;5038583;28;20597;-89
2022/10/04 03:14:48;;;;;;;1.20;1.10;;;11.60;97.30;;;;;;5035134;28;20184;-89
2022/10/04 03:17:15;;;;;;;1.37;1.27;;;11.50;97.30;;;;;;5051183;28;20418;-90
2022/10/04 03:19:41;;;;;;;1.10;1.00;;;11.50;97.30;;;;;;5053245;28;20438;-90
2022/10/04 03:22:10;;;;;;;1.00;0.90;;;11.50;97.30;;;;;;5039939;28;20573;-89
2022/10/04 03:24:47;;;;;;;1.00;0.90;;;11.40;97.30;;;;;;5043687;28;20671;-89
2022/10/04 03:27:21;;;;;;;1.37;1.30;;;11.40;97.30;;;;;;5050882;28;20481;-89
2022/10/04 03:29:49;;;;;;;1.10;1.00;;;11.30;97.30;;;;;;5052858;28;20863;-89
2022/10/04 03:32:17;;;;;;;1.33;1.23;;;11.30;97.30;;;;;;5052523;28;20422;-89
2022/10/04 03:34:56;;;;;;;1.20;1.10;;;11.30;97.30;;;;;;5041314;28;20419;-89
2022/10/04 03:37:23;;;;;;;2.03;1.63;;;11.20;97.30;;;;;;5041368;28;20426;-89
2022/10/04 03:39:52;;;;;;;3.27;1.27;;;11.20;97.30;;;;;;5051331;28;20507;-89
2022/10/04 03:42:24;;;;;;;3.93;1.23;;;11.20;97.30;;;;;;5041582;28;20806;-89
2022/10/04 03:44:53;;;;;;;1.50;1.40;;;11.10;97.30;;;;;;5036556;28;20803;-88
2022/10/04 03:47:27;;;;;;;1.57;1.50;;;11.10;97.30;;;;;;5033069;28;20808;-89
2022/10/04 03:49:56;;;;;;;1.33;1.27;;;11.10;97.30;;;;;;5036980;28;20469;-88
2022/10/04 03:52:25;;;;;;;1.13;1.03;;;11.10;97.30;;;;;;5041522;28;20415;-89
2022/10/04 03:54:55;;;;;;;1.90;1.13;;;11.10;97.30;;;;;;5045913;28;20431;-89
2022/10/04 03:57:22;;;;;;;1.10;1.00;;;11.10;97.30;;;;;;5045849;28;20415;-89
2022/10/04 03:59:48;;;;;;;1.10;1.00;;;11.10;97.30;;;;;;5033072;28;20442;-90
2022/10/04 04:02:32;;;;;;;1.27;1.17;;;11.00;97.30;;;;;;5044792;28;20434;-89
2022/10/04 04:04:58;;;;;;;10.17;2.10;;;11.00;97.30;;;;;;5052904;28;20449;-88
2022/10/04 04:07:44;;;;;;;7.03;1.70;;;11.00;97.30;;;;;;5039935;28;20502;-89
2022/10/04 04:10:21;;;;;;;7.17;1.50;;;11.00;97.30;;;;;;5041876;28;20250;-88
2022/10/04 04:12:55;;;;;;;1.87;1.83;;;10.90;97.30;;;;;;5033686;28;20419;-88
2022/10/04 04:15:22;;;;;;;1.20;1.10;;;10.90;97.30;;;;;;5033939;28;20995;-88
2022/10/04 04:17:52;;;;;;;3.13;1.67;;;10.90;97.30;;;;;;5052560;28;20932;-88
2022/10/04 04:20:29;;;;;;;1.53;1.43;;;10.90;97.30;;;;;;5052607;28;20449;-88
2022/10/04 04:23:13;;;;;;;1.50;1.40;;;10.90;97.30;;;;;;5051753;28;20470;-88
2022/10/04 04:25:42;;;;;;;2.07;1.93;;;10.90;97.30;;;;;;5052173;28;20488;-88
2022/10/04 04:28:28;;;;;;;4.03;2.30;;;10.80;97.30;;;;;;5052319;28;20426;-88
2022/10/04 04:31:04;;;;;;;8.23;1.40;;;10.80;97.30;;;;;;5042138;28;20419;-88
2022/10/04 04:33:36;;;;;;;3.20;2.70;;;10.80;97.30;;;;;;5052286;28;20512;-88
2022/10/04 04:36:19;;;;;;;1.70;1.60;;;10.80;97.30;;;;;;5045471;28;20411;-90
2022/10/04 04:41:34;;;;;;;1.37;1.30;;;10.70;97.30;;;;;;5052433;28;20417;-88
2022/10/04 04:44:00;;;;;;;1.40;1.40;;;10.70;97.30;;;;;;5048617;28;21155;-88
2022/10/04 04:46:27;;;;;;;2.47;1.97;;;10.70;97.30;;;;;;5038851;28;20541;-88
2022/10/04 04:49:00;;;;;;;2.20;2.03;;;10.70;97.30;;;;;;5052359;28;20239;-88
2022/10/04 04:51:26;;;;;;;3.07;1.23;;;10.70;97.30;;;;;;5050764;28;20410;-88
2022/10/04 04:53:54;;;;;;;1.60;1.50;;;10.70;97.30;;;;;;5051798;28;20476;-88
2022/10/04 04:56:24;;;;;;;1.70;1.60;;;10.60;97.30;;;;;;5034778;28;20420;-88
2022/10/04 04:58:51;;;;;;;3.03;1.97;;;10.60;97.30;;;;;;5046855;28;20438;-88
2022/10/04 05:01:42;;;;;;;1.30;1.20;;;10.60;97.30;;;;;;5041896;28;20481;-88
2022/10/04 05:04:07;;;;;;;1.57;1.47;;;10.60;97.30;;;;;;5050179;28;20940;-89
2022/10/04 05:06:35;;;;;;;7.80;1.67;;;10.60;97.30;;;;;;5042736;28;20451;-89
2022/10/04 05:09:00;;;;;;;2.70;1.90;;;10.60;97.30;;;;;;5037481;28;20259;-88
2022/10/04 05:11:30;;;;;;;1.30;1.20;;;10.60;97.30;;;;;;5042296;28;20443;-87
2022/10/04 05:14:09;;;;;;;3.40;1.80;;;10.60;97.30;;;;;;5047739;28;20183;-89
2022/10/04 05:16:46;;;;;;;2.90;2.30;;;10.60;97.30;;;;;;5044899;28;20418;-91
2022/10/04 05:19:36;;;;;;;1.70;1.53;;;10.60;97.30;;;;;;5045167;28;20496;-88
2022/10/04 05:22:12;;;;;;;8.87;4.00;;;10.60;97.30;;;;;;5043178;28;20414;-89
2022/10/04 05:24:41;;;;;;;2.00;1.90;;;10.60;97.30;;;;;;5050822;28;20426;-88
2022/10/04 05:27:27;;;;;;;3.13;1.30;;;10.60;97.30;;;;;;5050023;28;20505;-88
2022/10/04 05:30:04;;;;;;;1.60;1.50;;;10.60;97.30;;;;;;5051211;28;21000;-89
2022/10/04 05:32:40;;;;;;;4.47;1.80;;;10.70;97.30;;;;;;5051545;28;20417;-88
2022/10/04 05:35:20;;;;;;;1.97;1.87;;;10.70;97.30;;;;;;5038315;28;20410;-88
2022/10/04 05:38:10;;;;;;;3.93;1.83;;;10.70;97.30;;;;;;5051638;28;20422;-88
2022/10/04 05:40:48;;;;;;;1.47;1.30;;;10.80;97.30;;;;;;5039083;28;20521;-89
2022/10/04 05:43:28;;;;;;;1.83;1.77;;;10.80;97.30;;;;;;5048256;28;21003;-89
2022/10/04 05:46:23;;;;;;;5.60;2.40;;;10.80;97.30;;;;;;5042247;28;20423;-89
2022/10/04 05:49:11;;;;;;;4.13;1.97;;;10.80;97.30;;;;;;5031704;28;20462;-88
2022/10/04 05:52:01;;;;;;;4.60;2.47;;;10.80;97.30;;;;;;5037066;28;20417;-89
2022/10/04 05:54:30;;;;;;;3.17;1.80;;;10.90;97.30;;;;;;5036769;28;20414;-88
2022/10/04 05:57:24;;;;;;;1.93;1.73;;;10.90;97.30;;;;;;5040576;28;20421;-89
2022/10/04 06:00:17;;;;;;;1.33;1.07;;;10.90;97.30;;;;;;5050343;28;20748;-89
2022/10/04 06:02:53;;;;;;;1.20;1.10;;;10.90;97.30;;;;;;5047120;28;20438;-89
2022/10/04 06:05:39;;;;;;;1.67;1.60;;;11.00;97.30;;;;;;5031518;28;20800;-89
2022/10/04 06:08:32;;;;;;;1.67;1.20;;;11.00;97.30;;;;;;5038627;28;20420;-89
2022/10/04 06:11:16;;;;;;;1.50;1.40;;;11.00;97.30;;;;;;5033594;28;20575;-89
2022/10/04 06:14:03;;;;;;;1.40;1.30;;;11.10;97.30;;;;;;5050309;28;20944;-89
2022/10/04 06:17:08;;;;;;;1.20;1.20;;;11.10;97.30;;;;;;5044081;28;20429;-88
2022/10/04 06:20:00;;;;;;;1.20;1.20;;;11.10;97.30;;;;;;5039272;28;20442;-90
2022/10/04 06:22:29;;;;;;;1.60;1.20;;;11.20;97.30;;;;;;5048015;28;20480;-89
2022/10/04 06:25:04;;;;;;;1.13;1.10;;;11.30;97.30;;;;;;5050948;28;20412;-89
2022/10/04 06:27:48;;;;;;;1.87;1.63;;;11.30;97.30;;;;;;5050078;28;20998;-89
2022/10/04 06:30:16;;;;;;;1.30;1.20;;;11.40;97.30;;;;;;5049993;28;21607;-88
2022/10/04 06:32:51;;;;;;;4.17;1.93;;;11.40;97.30;;;;;;5050651;28;20414;-89
2022/10/04 06:35:29;;;;;;;2.20;1.57;;;11.40;97.30;;;;;;5050520;28;20925;-88
2022/10/04 06:38:21;;;;;;;5.03;1.83;;;11.50;97.30;;;;;;5050836;28;20410;-88
2022/10/04 06:41:14;;;;;;;2.90;1.93;;;11.50;97.30;;;;;;5041164;28;20517;-89
2022/10/04 06:44:16;;;;;;;25.83;2.90;;;11.50;97.30;;;;;;5051241;28;20498;-88
2022/10/04 06:46:49;;;;;;;2.27;2.07;;;11.50;97.30;;;;;;5050276;28;20467;-88
2022/10/04 06:49:33;;;;;;;1.83;1.23;;;11.50;97.30;;;;;;5039883;28;20517;-89
2022/10/04 06:52:05;;;;;;;2.07;1.30;;;11.60;97.30;;;;;;5039509;28;20421;-89
2022/10/04 06:54:39;;;;;;;1.03;0.93;;;11.60;97.30;;;;;;5048302;28;20442;-89
2022/10/04 06:57:28;;;;;;;6.27;1.37;;;11.60;97.30;;;;;;5040729;28;20426;-88
2022/10/04 07:00:19;;;;;;;1.37;1.13;;;11.60;97.30;;;;;;5050183;28;20808;-88
2022/10/04 07:02:44;;;;;;;3.13;1.63;;;11.70;97.30;;;;;;5050248;28;20438;-88
2022/10/04 07:05:29;;;;;;;1.43;1.10;;;11.70;97.30;;;;;;5050129;28;20433;-89
2022/10/04 07:08:09;;;;;;;1.33;1.20;;;11.80;97.30;;;;;;5050294;28;20187;-89
2022/10/04 07:10:50;;;;;;;1.20;1.10;;;11.80;97.30;;;;;;5050523;28;20446;-89
2022/10/04 07:13:32;;;;;;;1.27;1.20;;;11.90;97.30;;;;;;5031343;28;20429;-89
2022/10/04 07:16:31;;;;;;;1.43;1.33;;;11.90;97.30;;;;;;5035032;28;20510;-89
2022/10/04 07:19:26;;;;;;;1.17;1.07;;;11.90;97.30;;;;;;5046887;28;20453;-89
2022/10/04 07:22:23;;;;;;;1.57;1.50;;;12.00;97.30;;;;;;5038219;28;20801;-88
2022/10/04 07:25:01;;;;;;;2.60;1.47;;;12.00;97.30;;;;;;5004747;28;20493;-89
2022/10/04 07:27:32;;;;;;;1.73;1.20;;;12.10;97.30;;;;;;5049407;28;20487;-89
2022/10/04 07:30:08;;;;;;;1.23;1.07;;;12.10;97.30;;;;;;5034342;28;20471;-89
2022/10/04 07:32:37;;;;;;;1.00;0.93;;;12.20;97.30;;;;;;5042298;28;20419;-89
2022/10/04 07:35:09;;;;;;;1.40;1.30;;;12.20;97.30;;;;;;5049096;28;20823;-89
2022/10/04 07:37:53;;;;;;;1.70;1.30;;;12.30;97.30;;;;;;5054435;28;20414;-89
2022/10/04 07:40:34;;;;;;;0.93;0.83;;;12.40;97.30;;;;;;5053807;28;20438;-89
2022/10/04 07:43:07;;;;;;;1.67;1.37;;;12.40;97.30;;;;;;5039192;28;20425;-89
2022/10/04 07:45:36;;;;;;;1.10;0.90;;;12.50;97.30;;;;;;5044237;28;20418;-90
2022/10/04 07:48:22;;;;;;;1.27;1.10;;;12.50;97.30;;;;;;5042129;28;20423;-88
2022/10/04 07:50:56;;;;;;;2.03;1.27;;;12.60;97.30;;;;;;5041637;28;20465;-89
2022/10/04 07:53:38;;;;;;;2.50;1.40;;;12.60;97.30;;;;;;5043946;28;20410;-89
2022/10/04 07:56:32;;;;;;;3.17;2.10;;;12.70;97.30;;;;;;5054371;28;21441;-90
2022/10/04 07:59:31;;;;;;;1.50;1.40;;;12.80;97.30;;;;;;5053037;28;20434;-89
2022/10/04 08:02:15;;;;;;;13.40;3.93;;;12.90;97.30;;;;;;5044643;28;20460;-89
2022/10/04 08:05:18;;;;;;;2.30;1.23;;;13.00;97.30;;;;;;5046210;28;20426;-89
2022/10/04 08:08:20;;;;;;;1.10;1.03;;;13.10;97.30;;;;;;5041683;28;20791;-89
2022/10/04 08:11:11;;;;;;;1.10;1.00;;;13.20;97.30;;;;;;5056136;28;20444;-91
2022/10/04 08:13:49;;;;;;;1.60;1.60;;;13.20;97.30;;;;;;5055185;28;20925;-89
2022/10/04 08:16:31;;;;;;;10.23;1.70;;;13.30;97.30;;;;;;5056645;28;20415;-90
2022/10/04 08:19:05;;;;;;;1.03;0.93;;;13.40;97.30;;;;;;5056042;28;20466;-88
2022/10/04 08:21:44;;;;;;;3.13;2.70;;;13.50;97.30;;;;;;5044518;28;20427;-89
2022/10/04 08:24:50;;;;;;;6.13;1.80;;;13.50;97.30;;;;;;5043992;28;20541;-89
2022/10/04 08:27:25;;;;;;;4.80;2.00;;;13.60;97.30;;;;;;5052318;28;20628;-89
2022/10/04 08:30:17;;;;;;;1.67;1.57;;;13.70;97.30;;;;;;5052762;28;20461;-89
2022/10/04 08:33:21;;;;;;;1.33;1.30;;;13.80;97.30;;;;;;5036373;28;20433;-89
2022/10/04 08:35:59;;;;;;;1.10;1.00;;;13.90;97.30;;;;;;5052685;28;20418;-89
2022/10/04 08:38:41;;;;;;;1.30;1.20;;;13.90;97.30;;;;;;5037204;28;21247;-89
2022/10/04 08:41:36;;;;;;;1.20;1.10;;;13.90;97.30;;;;;;5046103;28;20432;-89
2022/10/04 08:44:31;;;;;;;11.97;2.50;;;14.00;97.30;;;;;;5040726;28;20452;-90
2022/10/04 08:47:20;;;;;;;6.93;1.70;;;14.00;97.30;;;;;;5009327;28;20419;-90
2022/10/04 08:50:21;;;;;;;1.13;0.93;;;14.00;97.30;;;;;;5053628;28;20837;-89
2022/10/04 08:52:57;;;;;;;1.27;1.17;;;14.00;97.30;;;;;;4977038;28;20416;-89
2022/10/04 08:55:57;;;;;;;1.20;1.20;;;14.10;97.30;;;;;;5047936;28;20452;-89
2022/10/04 08:58:54;;;;;;;3.10;1.40;;;14.10;97.30;;;;;;5042189;28;20410;-89
2022/10/04 09:01:57;;;;;;;1.67;1.30;;;14.20;97.30;;;;;;5041252;28;20453;-90
2022/10/04 09:04:58;;;;;;;1.03;1.00;;;14.20;97.30;;;;;;5052251;28;20916;-89
2022/10/04 09:08:03;;;;;;;1.67;1.30;;;14.30;97.30;;;;;;5052305;28;20424;-90
2022/10/04 09:10:58;;;;;;;1.37;1.13;;;14.40;97.30;;;;;;5052782;28;20466;-89
2022/10/04 09:13:39;;;;;;;1.50;1.40;;;14.50;97.30;;;;;;5042912;28;20497;-90
2022/10/04 09:16:18;;;;;;;4.80;3.90;;;14.60;97.30;;;;;;5045394;28;20435;-88
2022/10/04 09:19:09;;;;;;;3.33;1.30;;;14.60;97.30;;;;;;5034608;28;20430;-89
2022/10/04 09:21:46;;;;;;;1.10;1.10;;;14.60;97.30;;;;;;5053338;28;20427;-88
2022/10/04 09:24:33;;;;;;;2.47;1.20;;;14.70;97.30;;;;;;5039257;28;20909;-89
2022/10/04 09:27:18;;;;;;;5.37;2.57;;;14.70;97.30;;;;;;5052563;28;20461;-89
2022/10/04 09:30:00;;;;;;;1.27;1.13;;;14.80;97.30;;;;;;5049909;28;20474;-88
2022/10/04 09:32:44;;;;;;;1.73;1.33;;;14.80;97.30;;;;;;5052456;28;20415;-89
2022/10/04 09:35:32;;;;;;;1.20;1.10;;;14.90;97.30;;;;;;5053096;28;20460;-89
2022/10/04 09:38:17;;;;;;;1.20;1.17;;;14.90;97.30;;;;;;5054571;28;20406;-90
2022/10/04 09:41:02;;;;;;;0.90;0.80;;;14.90;97.30;;;;;;5033339;28;20504;-90
2022/10/04 09:43:53;;;;;;;1.23;1.10;;;15.00;97.30;;;;;;5051958;28;20931;-89
2022/10/04 09:46:28;;;;;;;4.70;2.07;;;15.00;97.30;;;;;;5038985;28;21025;-89
2022/10/04 09:49:14;;;;;;;1.43;1.20;;;15.00;97.30;;;;;;5042174;28;20476;-90
2022/10/04 09:52:08;;;;;;;0.93;0.83;;;15.10;97.30;;;;;;5046473;28;20856;-89
2022/10/04 09:55:03;;;;;;;2.87;1.30;;;15.10;97.30;;;;;;5048582;28;20944;-89
2022/10/04 09:57:52;;;;;;;1.63;1.53;;;15.20;97.30;;;;;;5052085;28;20428;-90
2022/10/04 10:00:38;;;;;;;1.87;1.77;;;15.20;97.30;;;;;;5044706;28;20465;-90
2022/10/04 10:03:15;;;;;;;1.20;1.10;;;15.30;97.30;;;;;;5052794;28;20519;-90
2022/10/04 10:05:54;;;;;;;0.83;0.83;;;15.40;97.30;;;;;;5051340;28;20418;-89
2022/10/04 10:08:42;;;;;;;1.37;1.23;;;15.40;97.30;;;;;;5052370;28;20418;-90
2022/10/04 10:14:32;;;;;;;1.77;1.17;;;15.50;97.30;;;;;;5035541;28;20484;-90
2022/10/04 10:17:22;;;;;;;1.13;1.07;;;15.60;97.30;;;;;;5034266;28;20439;-89
2022/10/04 10:20:07;;;;;;;7.63;2.07;;;15.60;97.30;;;;;;5051870;28;20466;-89
2022/10/04 10:22:58;;;;;;;1.23;1.13;;;15.70;97.30;;;;;;5051008;28;20473;-89
2022/10/04 10:25:46;;;;;;;2.87;1.87;;;15.70;97.30;;;;;;5048187;28;20415;-89
2022/10/04 10:28:25;;;;;;;1.93;1.27;;;15.80;97.30;;;;;;5043598;28;20418;-89
2022/10/04 10:31:19;;;;;;;2.50;1.00;;;15.90;97.30;;;;;;5031359;28;20459;-89
2022/10/04 10:34:19;;;;;;;1.20;1.10;;;16.00;97.30;;;;;;5045184;28;20480;-90
2022/10/04 10:37:49;;;;;;;1.07;0.90;;;16.10;97.30;;;;;;5046743;28;20423;-89
2022/10/04 10:40:29;;;;;;;3.23;1.23;;;16.40;97.30;;;;;;5033037;28;20457;-88
2022/10/04 10:43:20;;;;;;;1.37;1.13;;;16.60;97.30;;;;;;5061317;28;20418;-89
2022/10/04 10:46:37;;;;;;;1.00;1.00;;;16.70;96.90;;;;;;5050458;28;20447;-89
2022/10/04 10:49:51;;;;;;;1.03;0.93;;;16.80;95.90;;;;;;5036415;28;20943;-89
2022/10/04 10:56:37;;;;;;;2.23;1.50;;;17.20;94.50;;;;;;5030516;28;20419;-90
2022/10/04 11:03:11;;;;;;;1.13;1.03;;;17.40;93.50;;;;;;5028055;28;20423;-90
2022/10/04 11:10:18;;;;;;;2.40;1.47;;;17.70;93.50;;;;;;5003108;28;20516;-89
2022/10/04 11:13:58;;;;;;;0.97;0.93;;;17.80;93.10;;;;;;5018139;28;20418;-89
2022/10/04 11:16:30;;;;;;;1.30;1.30;;;17.80;91.50;;;;;;4989043;28;20916;-90
2022/10/04 11:19:21;;;;;;;2.03;0.90;;;17.80;91.90;;;;;;5051284;28;20983;-89
2022/10/04 11:22:08;;;;;;;1.10;0.97;;;18.00;92.40;;;;;;5034596;28;20415;-89
2022/10/04 11:24:46;;;;;;;1.43;1.30;;;18.20;91.40;;;;;;5042052;28;20525;-89
2022/10/04 11:27:51;;;;;;;1.80;1.70;;;18.30;89.70;;;;;;5053781;28;20422;-90
2022/10/04 11:30:25;;;;;;;2.30;0.90;;;18.40;89.70;;;;;;4997360;28;20469;-90
2022/10/04 11:33:31;;;;;;;1.10;1.00;;;18.50;88.50;;;;;;5054366;28;20426;-89
2022/10/04 11:36:29;;;;;;;1.00;0.90;;;18.60;88.10;;;;;;5053757;28;20429;-89
2022/10/04 11:39:41;;;;;;;3.13;1.00;;;18.60;87.70;;;;;;5053374;28;20525;-89
2022/10/04 11:42:41;;;;;;;1.63;1.33;;;18.70;87.90;;;;;;5040395;28;20520;-89
2022/10/04 11:45:48;;;;;;;1.10;1.00;;;18.70;88.20;;;;;;5039856;28;20500;-89
2022/10/04 11:49:20;;;;;;;3.13;1.90;;;18.70;88.00;;;;;;5040634;28;20423;-90
2022/10/04 11:51:49;;;;;;;0.90;0.90;;;18.90;87.30;;;;;;5025936;28;20505;-89
2022/10/04 11:55:00;;;;;;;1.60;1.07;;;18.90;87.20;;;;;;5053200;28;20475;-88
2022/10/04 11:57:30;;;;;;;1.53;1.00;;;19.00;87.90;;;;;;5053638;28;20449;-89
2022/10/04 12:00:17;;;;;;;1.53;1.00;;;19.20;88.10;;;;;;5046988;28;20522;-89
2022/10/04 12:03:04;;;;;;;1.43;1.20;;;19.30;88.30;;;;;;5048624;28;20960;-89
2022/10/04 12:07:19;;;;;;;;;;;;;;;;;;;;;
2022/10/04 12:09:31;;;;;;;1.43;1.13;;;19.60;86.90;;;;;;5022411;28;20462;-88
2022/10/04 12:12:37;;;;;;;2.10;1.13;;;19.80;85.90;;;;;;5052523;28;20479;-89
2022/10/04 12:15:22;;;;;;;0.80;0.80;;;20.10;85.30;;;;;;5052571;28;20514;-90
2022/10/04 12:18:41;;;;;;;0.83;0.77;;;20.00;82.80;;;;;;5056731;28;20415;-89
2022/10/04 12:21:51;;;;;;;1.50;1.40;;;19.90;85.70;;;;;;4951652;28;20425;-89
2022/10/04 12:25:31;;;;;;;1.53;1.33;;;19.90;86.40;;;;;;4982073;28;20836;-88
2022/10/04 12:28:22;;;;;;;2.03;0.90;;;20.00;85.70;;;;;;5045409;28;20411;-89
2022/10/04 12:31:09;;;;;;;1.10;1.00;;;20.10;83.90;;;;;;5039024;28;20545;-88
2022/10/04 12:34:15;;;;;;;1.80;1.27;;;20.20;83.30;;;;;;5051900;28;20414;-90
2022/10/04 12:37:12;;;;;;;1.10;1.00;;;20.40;83.00;;;;;;5038409;28;20449;-88
2022/10/04 12:39:44;;;;;;;1.40;1.03;;;20.70;83.40;;;;;;5051835;28;20462;-89
2022/10/04 12:42:33;;;;;;;1.00;0.90;;;20.90;83.30;;;;;;5068694;28;20407;-89
2022/10/04 12:45:18;;;;;;;1.37;1.07;;;21.00;82.50;;;;;;5038607;28;20411;-88
2022/10/04 12:47:50;;;;;;;1.50;1.30;;;21.00;82.10;;;;;;5040020;28;20414;-89
2022/10/04 12:50:27;;;;;;;8.10;1.83;;;21.00;81.40;;;;;;5038181;28;20469;-89
2022/10/04 12:52:55;;;;;;;1.10;1.10;;;20.90;82.10;;;;;;5051714;28;20463;-88
2022/10/04 12:55:39;;;;;;;1.10;1.10;;;20.90;82.30;;;;;;5042493;28;20423;-88
2022/10/04 12:58:31;;;;;;;1.20;1.10;;;21.10;81.90;;;;;;5049789;28;20465;-91
2022/10/04 13:01:29;;;;;;;1.00;0.90;;;21.20;81.70;;;;;;5050550;28;20419;-91
2022/10/04 13:04:31;;;;;;;1.10;1.00;;;21.30;82.10;;;;;;5019926;28;20930;-90
2022/10/04 13:07:28;;;;;;;1.03;0.93;;;21.30;80.50;;;;;;5043022;28;20516;-91
2022/10/04 13:10:28;;;;;;;1.40;1.20;;;21.30;80.00;;;;;;5041561;28;20473;-91
2022/10/04 13:13:10;;;;;;;0.90;0.80;;;21.30;80.80;;;;;;5031681;28;20439;-91
2022/10/04 13:15:43;;;;;;;16.40;1.47;;;21.40;80.70;;;;;;5031199;28;20415;-91
2022/10/04 13:18:33;;;;;;;1.20;1.10;;;21.50;80.50;;;;;;5041680;28;20928;-91
2022/10/04 13:21:07;;;;;;;1.30;1.10;;;21.50;81.00;;;;;;5044310;28;20952;-91
2022/10/04 13:24:02;;;;;;;1.37;1.27;;;21.60;80.10;;;;;;5033667;28;20956;-91
2022/10/04 13:26:56;;;;;;;0.87;0.80;;;21.60;81.20;;;;;;5050639;28;20932;-91
2022/10/04 13:29:28;;;;;;;1.23;1.10;;;21.70;80.90;;;;;;5042347;28;20537;-91
2022/10/04 13:32:09;;;;;;;1.10;1.00;;;21.70;80.50;;;;;;5051907;28;20453;-91
2022/10/04 13:34:39;;;;;;;1.47;1.37;;;21.80;80.40;;;;;;5039000;28;20430;-91
2022/10/04 13:37:36;;;;;;;1.90;1.20;;;21.90;80.40;;;;;;5044524;28;20477;-90
2022/10/04 13:40:37;;;;;;;1.10;1.00;;;22.00;80.10;;;;;;5046400;28;20442;-89
2022/10/04 13:43:14;;;;;;;1.43;1.00;;;22.10;79.40;;;;;;4985886;28;20417;-91
2022/10/04 13:45:51;;;;;;;1.47;1.10;;;22.20;79.00;;;;;;5046289;28;20929;-91
2022/10/04 13:48:29;;;;;;;6.77;1.10;;;22.20;78.50;;;;;;5050142;28;20411;-91
2022/10/04 13:51:20;;;;;;;1.37;1.10;;;22.20;78.30;;;;;;5050589;28;20419;-89
2022/10/04 13:57:04;;;;;;;1.03;0.93;;;22.10;78.80;;;;;;5052109;28;20907;-91
2022/10/04 13:59:57;;;;;;;2.50;1.20;;;22.10;78.50;;;;;;5034535;28;20434;-89
2022/10/04 14:02:45;;;;;;;1.10;1.00;;;22.20;78.60;;;;;;5044409;28;20422;-90
2022/10/04 14:05:28;;;;;;;1.10;1.00;;;22.20;79.50;;;;;;5049828;28;20414;-90
2022/10/04 14:08:09;;;;;;;2.27;2.07;;;22.20;78.30;;;;;;5062523;28;20454;-91
2022/10/04 14:10:56;;;;;;;1.20;1.10;;;22.20;78.80;;;;;;5034399;28;21056;-91
2022/10/04 14:13:44;;;;;;;13.40;1.20;;;22.20;78.90;;;;;;5050293;28;20445;-91
2022/10/04 14:16:32;;;;;;;1.00;0.93;;;22.20;79.00;;;;;;5039543;28;20465;-91
2022/10/04 14:19:16;;;;;;;0.80;0.80;;;22.20;78.50;;;;;;5037499;28;20458;-90
2022/10/04 14:22:22;;;;;;;2.67;1.23;;;22.20;79.40;;;;;;5037465;28;20423;-90
2022/10/04 14:25:04;;;;;;;2.40;1.10;;;22.30;78.70;;;;;;5049581;28;20433;-93
2022/10/04 14:27:57;;;;;;;2.40;1.00;;;22.50;78.30;;;;;;5049653;28;20461;-91
2022/10/04 14:30:48;;;;;;;1.40;1.30;;;22.60;78.40;;;;;;5046525;28;20470;-90
2022/10/04 14:33:28;;;;;;;3.60;1.80;;;22.80;77.70;;;;;;5050729;28;20410;-91
2022/10/04 14:35:56;;;;;;;0.90;0.80;;;22.80;78.10;;;;;;5049893;28;20505;-90
2022/10/04 14:38:53;;;;;;;1.13;1.03;;;22.80;76.80;;;;;;5049690;28;20469;-91
2022/10/04 14:41:39;;;;;;;1.20;1.10;;;22.70;77.00;;;;;;5049158;28;20800;-91
2022/10/04 14:44:11;;;;;;;1.00;0.90;;;22.70;76.90;;;;;;5049132;28;20498;-91
2022/10/04 14:46:50;;;;;;;3.27;1.10;;;22.80;77.40;;;;;;5050411;28;20410;-90